sensor_id;sensor_type;location;lat;lon;timestamp;temperature;humidity
12276;DHT22;6200;48.144;11.424;2024-01-07T00:00:42;2.30;99.90
12276;DHT22;6200;48.144;11.424;2024-01-07T00:03:08;2.30;99.90
12276;DHT22;6200;48.144;11.424;2024-01-07T00:05:35;2.30;99.90
12276;DHT22;6200;48.144;11.424;2024-01-07T00:08:01;2.30;99.90
12276;DHT22;6200;48.144;11.424;2024-01-07T00:10:27;2.30;99.90
12276;DHT22;6200;48.144;11.424;2024-01-07T00:12:52;2.30;99.90
12276;DHT22;6200;48.144;11.424;2024-01-07T00:15:18;2.30;99.90
12276;DHT22;6200;48.144;11.424;2024-01-07T00:17:43;2.20;99.90
12276;DHT22;6200;48.144;11.424;2024-01-07T00:20:09;2.30;99.90
12276;DHT22;6200;48.144;11.424;2024-01-07T00:22:35;2.30;99.90
12276;DHT22;6200;48.144;11.424;2024-01-07T00:25:01;2.30;99.90
12276;DHT22;6200;48.144;11.424;2024-01-07T00:27:27;2.30;99.90
12276;DHT22;6200;48.144;11.424;2024-01-07T00:29:52;2.30;99.90
12276;DHT22;6200;48.144;11.424;2024-01-07T00:32:18;3.80;99.90
12276;DHT22;6200;48.144;11.424;2024-01-07T00:34:44;2.30;99.90
12276;DHT22;6200;48.144;11.424;2024-01-07T00:37:10;2.20;99.90
12276;DHT22;6200;48.144;11.424;2024-01-07T00:39:35;2.30;99.90
12276;DHT22;6200;48.144;11.424;2024-01-07T00:42:01;2.30;99.90
12276;DHT22;6200;48.144;11.424;2024-01-07T00:44:26;2.30;99.90
12276;DHT22;6200;48.144;11.424;2024-01-07T00:46:52;2.30;99.90
12276;DHT22;6200;48.144;11.424;2024-01-07T00:49:17;2.30;99.90
12276;DHT22;6200;48.144;11.424;2024-01-07T00:51:43;2.30;99.90
12276;DHT22;6200;48.144;11.424;2024-01-07T00:54:08;2.30;99.90
12276;DHT22;6200;48.144;11.424;2024-01-07T00:56:34;2.30;99.90
12276;DHT22;6200;48.144;11.424;2024-01-07T00:58:59;2.30;99.90
12276;DHT22;6200;48.144;11.424;2024-01-07T01:01:25;2.30;99.90
12276;DHT22;6200;48.144;11.424;2024-01-07T01:03:50;2.30;99.90
12276;DHT22;6200;48.144;11.424;2024-01-07T01:06:16;2.30;99.90
12276;DHT22;6200;48.144;11.424;2024-01-07T01:08:41;2.30;99.90
12276;DHT22;6200;48.144;11.424;2024-01-07T01:11:09;2.30;99.90
12276;DHT22;6200;48.144;11.424;2024-01-07T01:13:35;2.30;99.90
12276;DHT22;6200;48.144;11.424;2024-01-07T01:16:01;2.30;99.90
12276;DHT22;6200;48.144;11.424;2024-01-07T01:18:26;2.30;99.90
12276;DHT22;6200;48.144;11.424;2024-01-07T01:20:52;2.30;99.90
12276;DHT22;6200;48.144;11.424;2024-01-07T01:23:17;2.20;99.90
12276;DHT22;6200;48.144;11.424;2024-01-07T01:25:43;2.20;99.90
12276;DHT22;6200;48.144;11.424;2024-01-07T01:28:09;2.20;99.90
12276;DHT22;6200;48.144;11.424;2024-01-07T01:30:35;2.20;99.90
12276;DHT22;6200;48.144;11.424;2024-01-07T01:33:00;2.30;99.90
12276;DHT22;6200;48.144;11.424;2024-01-07T01:35:27;2.30;99.90
12276;DHT22;6200;48.144;11.424;2024-01-07T01:37:53;2.30;99.90
12276;DHT22;6200;48.144;11.424;2024-01-07T01:40:20;2.30;99.90
12276;DHT22;6200;48.144;11.424;2024-01-07T01:42:45;2.30;99.90
12276;DHT22;6200;48.144;11.424;2024-01-07T01:45:13;2.30;99.90
12276;DHT22;6200;48.144;11.424;2024-01-07T01:47:39;2.30;99.90
12276;DHT22;6200;48.144;11.424;2024-01-07T01:50:06;2.30;99.90
12276;DHT22;6200;48.144;11.424;2024-01-07T01:52:31;2.30;99.90
12276;DHT22;6200;48.144;11.424;2024-01-07T01:54:57;2.30;99.90
12276;DHT22;6200;48.144;11.424;2024-01-07T01:57:24;2.30;99.90
12276;DHT22;6200;48.144;11.424;2024-01-07T01:59:55;2.30;99.90
12276;DHT22;6200;48.144;11.424;2024-01-07T02:02:21;2.30;99.90
12276;DHT22;6200;48.144;11.424;2024-01-07T02:04:46;2.30;99.90
12276;DHT22;6200;48.144;11.424;2024-01-07T02:07:12;2.20;99.90
12276;DHT22;6200;48.144;11.424;2024-01-07T02:09:37;2.20;99.90
12276;DHT22;6200;48.144;11.424;2024-01-07T02:12:05;2.20;99.90
12276;DHT22;6200;48.144;11.424;2024-01-07T02:14:31;2.30;99.90
12276;DHT22;6200;48.144;11.424;2024-01-07T02:16:57;2.30;99.90
12276;DHT22;6200;48.144;11.424;2024-01-07T02:19:22;2.30;99.90
12276;DHT22;6200;48.144;11.424;2024-01-07T02:21:50;2.30;99.90
12276;DHT22;6200;48.144;11.424;2024-01-07T02:24:16;2.30;99.90
12276;DHT22;6200;48.144;11.424;2024-01-07T02:26:42;2.30;99.90
12276;DHT22;6200;48.144;11.424;2024-01-07T02:29:08;2.30;99.90
12276;DHT22;6200;48.144;11.424;2024-01-07T02:31:33;1.70;99.90
12276;DHT22;6200;48.144;11.424;2024-01-07T02:33:59;1.50;99.90
12276;DHT22;6200;48.144;11.424;2024-01-07T02:36:24;2.20;99.90
12276;DHT22;6200;48.144;11.424;2024-01-07T02:38:50;2.30;99.90
12276;DHT22;6200;48.144;11.424;2024-01-07T02:41:16;2.20;99.90
12276;DHT22;6200;48.144;11.424;2024-01-07T02:43:41;2.20;99.90
12276;DHT22;6200;48.144;11.424;2024-01-07T02:46:08;2.20;99.90
12276;DHT22;6200;48.144;11.424;2024-01-07T02:48:33;2.20;99.90
12276;DHT22;6200;48.144;11.424;2024-01-07T02:51:00;2.20;99.90
12276;DHT22;6200;48.144;11.424;2024-01-07T02:53:25;2.30;99.90
12276;DHT22;6200;48.144;11.424;2024-01-07T02:55:51;2.30;99.90
12276;DHT22;6200;48.144;11.424;2024-01-07T02:58:16;2.20;99.90
12276;DHT22;6200;48.144;11.424;2024-01-07T03:00:42;2.30;99.90
12276;DHT22;6200;48.144;11.424;2024-01-07T03:03:08;2.30;99.90
12276;DHT22;6200;48.144;11.424;2024-01-07T03:05:33;2.20;99.90
12276;DHT22;6200;48.144;11.424;2024-01-07T03:07:59;2.30;99.90
12276;DHT22;6200;48.144;11.424;2024-01-07T03:10:25;2.30;99.90
12276;DHT22;6200;48.144;11.424;2024-01-07T03:12:51;2.20;99.90
12276;DHT22;6200;48.144;11.424;2024-01-07T03:15:17;2.30;99.90
12276;DHT22;6200;48.144;11.424;2024-01-07T03:17:43;2.30;99.90
12276;DHT22;6200;48.144;11.424;2024-01-07T03:20:10;2.30;99.90
12276;DHT22;6200;48.144;11.424;2024-01-07T03:22:36;2.30;99.90
12276;DHT22;6200;48.144;11.424;2024-01-07T03:25:01;2.30;99.90
12276;DHT22;6200;48.144;11.424;2024-01-07T03:27:27;2.30;99.90
12276;DHT22;6200;48.144;11.424;2024-01-07T03:29:52;2.30;99.90
12276;DHT22;6200;48.144;11.424;2024-01-07T03:32:18;2.30;99.90
12276;DHT22;6200;48.144;11.424;2024-01-07T03:34:44;2.30;99.90
12276;DHT22;6200;48.144;11.424;2024-01-07T03:37:09;2.20;99.90
12276;DHT22;6200;48.144;11.424;2024-01-07T03:39:35;2.20;99.90
12276;DHT22;6200;48.144;11.424;2024-01-07T03:42:01;2.30;99.90
12276;DHT22;6200;48.144;11.424;2024-01-07T03:44:26;2.20;99.90
12276;DHT22;6200;48.144;11.424;2024-01-07T03:46:52;2.20;99.90
12276;DHT22;6200;48.144;11.424;2024-01-07T03:49:18;2.20;99.90
12276;DHT22;6200;48.144;11.424;2024-01-07T03:51:44;2.20;99.90
12276;DHT22;6200;48.144;11.424;2024-01-07T03:54:09;2.20;99.90
12276;DHT22;6200;48.144;11.424;2024-01-07T03:56:35;2.20;99.90
12276;DHT22;6200;48.144;11.424;2024-01-07T03:59:00;2.20;99.90
12276;DHT22;6200;48.144;11.424;2024-01-07T04:01:26;2.60;99.90
12276;DHT22;6200;48.144;11.424;2024-01-07T04:03:52;2.30;99.90
12276;DHT22;6200;48.144;11.424;2024-01-07T04:06:17;2.20;99.90
12276;DHT22;6200;48.144;11.424;2024-01-07T04:08:43;2.20;99.90
12276;DHT22;6200;48.144;11.424;2024-01-07T04:11:09;2.30;99.90
12276;DHT22;6200;48.144;11.424;2024-01-07T04:13:34;2.20;99.90
12276;DHT22;6200;48.144;11.424;2024-01-07T04:16:00;2.30;99.90
12276;DHT22;6200;48.144;11.424;2024-01-07T04:18:25;2.30;99.90
12276;DHT22;6200;48.144;11.424;2024-01-07T04:20:51;2.30;99.90
12276;DHT22;6200;48.144;11.424;2024-01-07T04:23:16;2.20;99.90
12276;DHT22;6200;48.144;11.424;2024-01-07T04:25:42;2.20;99.90
12276;DHT22;6200;48.144;11.424;2024-01-07T04:28:09;2.20;99.90
12276;DHT22;6200;48.144;11.424;2024-01-07T04:30:35;2.20;99.90
12276;DHT22;6200;48.144;11.424;2024-01-07T04:33:01;2.30;99.90
12276;DHT22;6200;48.144;11.424;2024-01-07T04:35:26;2.20;99.90
12276;DHT22;6200;48.144;11.424;2024-01-07T04:37:52;2.20;99.90
12276;DHT22;6200;48.144;11.424;2024-01-07T04:40:17;2.20;99.90
12276;DHT22;6200;48.144;11.424;2024-01-07T04:42:45;2.20;99.90
12276;DHT22;6200;48.144;11.424;2024-01-07T04:45:10;2.20;99.90
12276;DHT22;6200;48.144;11.424;2024-01-07T04:47:36;2.20;99.90
12276;DHT22;6200;48.144;11.424;2024-01-07T04:50:02;2.30;99.90
12276;DHT22;6200;48.144;11.424;2024-01-07T04:52:28;2.30;99.90
12276;DHT22;6200;48.144;11.424;2024-01-07T04:54:55;2.30;99.90
12276;DHT22;6200;48.144;11.424;2024-01-07T04:57:21;2.30;99.90
12276;DHT22;6200;48.144;11.424;2024-01-07T04:59:48;2.30;99.90
12276;DHT22;6200;48.144;11.424;2024-01-07T05:02:14;2.30;99.90
12276;DHT22;6200;48.144;11.424;2024-01-07T05:04:39;2.30;99.90
12276;DHT22;6200;48.144;11.424;2024-01-07T05:07:05;3.10;99.90
12276;DHT22;6200;48.144;11.424;2024-01-07T05:09:32;2.30;99.90
12276;DHT22;6200;48.144;11.424;2024-01-07T05:11:58;2.30;99.90
12276;DHT22;6200;48.144;11.424;2024-01-07T05:14:24;2.30;99.90
12276;DHT22;6200;48.144;11.424;2024-01-07T05:16:50;2.30;99.90
12276;DHT22;6200;48.144;11.424;2024-01-07T05:19:15;2.30;99.90
12276;DHT22;6200;48.144;11.424;2024-01-07T05:21:41;2.30;99.90
12276;DHT22;6200;48.144;11.424;2024-01-07T05:24:06;2.30;99.90
12276;DHT22;6200;48.144;11.424;2024-01-07T05:26:38;2.30;99.90
12276;DHT22;6200;48.144;11.424;2024-01-07T05:29:05;2.40;99.90
12276;DHT22;6200;48.144;11.424;2024-01-07T05:31:30;2.40;99.90
12276;DHT22;6200;48.144;11.424;2024-01-07T05:33:56;2.40;99.90
12276;DHT22;6200;48.144;11.424;2024-01-07T05:36:21;2.40;99.90
12276;DHT22;6200;48.144;11.424;2024-01-07T05:38:47;2.40;99.90
12276;DHT22;6200;48.144;11.424;2024-01-07T05:41:13;2.40;99.90
12276;DHT22;6200;48.144;11.424;2024-01-07T05:43:38;2.40;99.90
12276;DHT22;6200;48.144;11.424;2024-01-07T05:46:04;2.50;99.90
12276;DHT22;6200;48.144;11.424;2024-01-07T05:48:29;1.90;99.90
12276;DHT22;6200;48.144;11.424;2024-01-07T05:50:55;2.40;99.90
12276;DHT22;6200;48.144;11.424;2024-01-07T05:53:20;2.50;99.90
12276;DHT22;6200;48.144;11.424;2024-01-07T05:55:46;2.40;99.90
12276;DHT22;6200;48.144;11.424;2024-01-07T05:58:11;2.40;99.90
12276;DHT22;6200;48.144;11.424;2024-01-07T06:00:38;2.50;99.90
12276;DHT22;6200;48.144;11.424;2024-01-07T06:03:03;2.50;99.90
12276;DHT22;6200;48.144;11.424;2024-01-07T06:05:29;2.50;99.90
12276;DHT22;6200;48.144;11.424;2024-01-07T06:07:55;2.50;99.90
12276;DHT22;6200;48.144;11.424;2024-01-07T06:10:20;2.50;99.90
12276;DHT22;6200;48.144;11.424;2024-01-07T06:12:46;2.50;99.90
12276;DHT22;6200;48.144;11.424;2024-01-07T06:15:11;2.50;99.90
12276;DHT22;6200;48.144;11.424;2024-01-07T06:17:37;2.50;99.90
12276;DHT22;6200;48.144;11.424;2024-01-07T06:20:03;2.50;99.90
12276;DHT22;6200;48.144;11.424;2024-01-07T06:22:29;2.50;99.90
12276;DHT22;6200;48.144;11.424;2024-01-07T06:24:54;2.50;99.90
12276;DHT22;6200;48.144;11.424;2024-01-07T06:27:20;2.50;99.90
12276;DHT22;6200;48.144;11.424;2024-01-07T06:29:45;1.50;99.90
12276;DHT22;6200;48.144;11.424;2024-01-07T06:32:11;2.50;99.90
12276;DHT22;6200;48.144;11.424;2024-01-07T06:34:37;2.50;99.90
12276;DHT22;6200;48.144;11.424;2024-01-07T06:37:02;2.50;99.90
12276;DHT22;6200;48.144;11.424;2024-01-07T06:39:28;2.50;99.90
12276;DHT22;6200;48.144;11.424;2024-01-07T06:41:53;2.50;99.90
12276;DHT22;6200;48.144;11.424;2024-01-07T06:44:19;2.50;99.90
12276;DHT22;6200;48.144;11.424;2024-01-07T06:46:45;2.50;99.90
12276;DHT22;6200;48.144;11.424;2024-01-07T06:49:10;2.40;99.90
12276;DHT22;6200;48.144;11.424;2024-01-07T06:51:37;2.40;99.90
12276;DHT22;6200;48.144;11.424;2024-01-07T06:54:02;2.40;99.90
12276;DHT22;6200;48.144;11.424;2024-01-07T06:56:28;2.40;99.90
12276;DHT22;6200;48.144;11.424;2024-01-07T06:58:53;2.40;99.90
12276;DHT22;6200;48.144;11.424;2024-01-07T07:01:22;2.40;99.90
12276;DHT22;6200;48.144;11.424;2024-01-07T07:03:49;2.40;99.90
12276;DHT22;6200;48.144;11.424;2024-01-07T07:06:14;2.40;99.90
12276;DHT22;6200;48.144;11.424;2024-01-07T07:08:40;2.40;99.90
12276;DHT22;6200;48.144;11.424;2024-01-07T07:11:05;2.30;99.90
12276;DHT22;6200;48.144;11.424;2024-01-07T07:13:31;2.40;99.90
12276;DHT22;6200;48.144;11.424;2024-01-07T07:15:56;2.40;99.90
12276;DHT22;6200;48.144;11.424;2024-01-07T07:18:22;2.40;99.90
12276;DHT22;6200;48.144;11.424;2024-01-07T07:20:47;2.40;99.90
12276;DHT22;6200;48.144;11.424;2024-01-07T07:23:13;2.40;99.90
12276;DHT22;6200;48.144;11.424;2024-01-07T07:25:39;2.40;99.90
12276;DHT22;6200;48.144;11.424;2024-01-07T07:28:04;2.40;99.90
12276;DHT22;6200;48.144;11.424;2024-01-07T07:30:30;2.40;99.90
12276;DHT22;6200;48.144;11.424;2024-01-07T07:32:55;2.40;99.90
12276;DHT22;6200;48.144;11.424;2024-01-07T07:35:21;2.40;99.90
12276;DHT22;6200;48.144;11.424;2024-01-07T07:37:47;2.40;99.90
12276;DHT22;6200;48.144;11.424;2024-01-07T07:40:12;2.40;99.90
12276;DHT22;6200;48.144;11.424;2024-01-07T07:42:38;2.40;99.90
12276;DHT22;6200;48.144;11.424;2024-01-07T07:45:04;2.40;99.90
12276;DHT22;6200;48.144;11.424;2024-01-07T07:47:31;2.40;99.90
12276;DHT22;6200;48.144;11.424;2024-01-07T07:49:56;2.40;99.90
12276;DHT22;6200;48.144;11.424;2024-01-07T07:52:22;2.40;99.90
12276;DHT22;6200;48.144;11.424;2024-01-07T07:54:51;2.40;99.90
12276;DHT22;6200;48.144;11.424;2024-01-07T07:57:17;2.40;99.90
12276;DHT22;6200;48.144;11.424;2024-01-07T07:59:42;2.40;99.90
12276;DHT22;6200;48.144;11.424;2024-01-07T08:02:08;2.40;99.90
12276;DHT22;6200;48.144;11.424;2024-01-07T08:04:33;2.40;99.90
12276;DHT22;6200;48.144;11.424;2024-01-07T08:06:59;2.50;99.90
12276;DHT22;6200;48.144;11.424;2024-01-07T08:09:26;2.40;99.90
12276;DHT22;6200;48.144;11.424;2024-01-07T08:11:51;2.40;99.90
12276;DHT22;6200;48.144;11.424;2024-01-07T08:14:17;2.40;99.90
12276;DHT22;6200;48.144;11.424;2024-01-07T08:16:42;2.50;99.90
12276;DHT22;6200;48.144;11.424;2024-01-07T08:19:08;2.40;99.90
12276;DHT22;6200;48.144;11.424;2024-01-07T08:21:33;2.40;99.90
12276;DHT22;6200;48.144;11.424;2024-01-07T08:23:59;2.40;99.90
12276;DHT22;6200;48.144;11.424;2024-01-07T08:26:24;2.40;99.90
12276;DHT22;6200;48.144;11.424;2024-01-07T08:28:50;2.30;99.90
12276;DHT22;6200;48.144;11.424;2024-01-07T08:31:15;2.30;99.90
12276;DHT22;6200;48.144;11.424;2024-01-07T08:33:41;2.30;99.90
12276;DHT22;6200;48.144;11.424;2024-01-07T08:36:07;2.30;99.90
12276;DHT22;6200;48.144;11.424;2024-01-07T08:38:32;2.30;99.90
12276;DHT22;6200;48.144;11.424;2024-01-07T08:40:58;2.30;99.90
12276;DHT22;6200;48.144;11.424;2024-01-07T08:43:23;2.30;99.90
12276;DHT22;6200;48.144;11.424;2024-01-07T08:45:49;2.20;99.90
12276;DHT22;6200;48.144;11.424;2024-01-07T08:48:15;2.20;99.90
12276;DHT22;6200;48.144;11.424;2024-01-07T08:50:41;2.20;99.90
12276;DHT22;6200;48.144;11.424;2024-01-07T08:53:06;2.30;99.90
12276;DHT22;6200;48.144;11.424;2024-01-07T08:55:32;2.30;99.90
12276;DHT22;6200;48.144;11.424;2024-01-07T08:57:57;2.20;99.90
12276;DHT22;6200;48.144;11.424;2024-01-07T09:00:23;2.20;99.90
12276;DHT22;6200;48.144;11.424;2024-01-07T09:02:52;2.20;99.90
12276;DHT22;6200;48.144;11.424;2024-01-07T09:05:18;2.20;99.90
12276;DHT22;6200;48.144;11.424;2024-01-07T09:07:44;2.30;99.90
12276;DHT22;6200;48.144;11.424;2024-01-07T09:10:09;2.20;99.90
12276;DHT22;6200;48.144;11.424;2024-01-07T09:12:36;2.20;99.90
12276;DHT22;6200;48.144;11.424;2024-01-07T09:15:04;2.20;99.90
12276;DHT22;6200;48.144;11.424;2024-01-07T09:17:29;2.20;99.90
12276;DHT22;6200;48.144;11.424;2024-01-07T09:19:55;2.20;99.90
12276;DHT22;6200;48.144;11.424;2024-01-07T09:22:20;2.30;99.90
12276;DHT22;6200;48.144;11.424;2024-01-07T09:24:47;2.30;99.90
12276;DHT22;6200;48.144;11.424;2024-01-07T09:27:12;2.30;99.90
12276;DHT22;6200;48.144;11.424;2024-01-07T09:29:38;2.30;99.90
12276;DHT22;6200;48.144;11.424;2024-01-07T09:32:03;2.30;99.90
12276;DHT22;6200;48.144;11.424;2024-01-07T09:34:29;2.30;99.90
12276;DHT22;6200;48.144;11.424;2024-01-07T09:36:54;2.00;99.90
12276;DHT22;6200;48.144;11.424;2024-01-07T09:39:20;2.30;99.90
12276;DHT22;6200;48.144;11.424;2024-01-07T09:41:46;2.40;99.90
12276;DHT22;6200;48.144;11.424;2024-01-07T09:44:12;2.40;99.90
12276;DHT22;6200;48.144;11.424;2024-01-07T09:46:39;2.40;99.90
12276;DHT22;6200;48.144;11.424;2024-01-07T09:49:05;2.50;99.90
12276;DHT22;6200;48.144;11.424;2024-01-07T09:51:35;2.40;99.90
12276;DHT22;6200;48.144;11.424;2024-01-07T09:54:02;2.40;99.90
12276;DHT22;6200;48.144;11.424;2024-01-07T09:56:38;2.40;99.90
12276;DHT22;6200;48.144;11.424;2024-01-07T09:59:06;2.40;99.90
12276;DHT22;6200;48.144;11.424;2024-01-07T10:01:32;2.40;99.90
12276;DHT22;6200;48.144;11.424;2024-01-07T10:04:00;2.40;99.90
12276;DHT22;6200;48.144;11.424;2024-01-07T10:06:25;2.40;99.90
12276;DHT22;6200;48.144;11.424;2024-01-07T10:08:51;2.50;99.90
12276;DHT22;6200;48.144;11.424;2024-01-07T10:11:16;2.40;99.90
12276;DHT22;6200;48.144;11.424;2024-01-07T10:13:45;2.40;99.90
12276;DHT22;6200;48.144;11.424;2024-01-07T10:16:13;2.40;99.90
12276;DHT22;6200;48.144;11.424;2024-01-07T10:18:39;2.50;99.90
12276;DHT22;6200;48.144;11.424;2024-01-07T10:21:06;2.40;99.90
12276;DHT22;6200;48.144;11.424;2024-01-07T10:23:32;2.30;99.90
12276;DHT22;6200;48.144;11.424;2024-01-07T10:25:58;2.30;99.90
12276;DHT22;6200;48.144;11.424;2024-01-07T10:28:23;2.30;99.90
12276;DHT22;6200;48.144;11.424;2024-01-07T10:30:49;2.30;99.90
12276;DHT22;6200;48.144;11.424;2024-01-07T10:33:17;2.30;99.90
12276;DHT22;6200;48.144;11.424;2024-01-07T10:36:00;2.30;99.90
12276;DHT22;6200;48.144;11.424;2024-01-07T10:38:26;2.30;99.90
12276;DHT22;6200;48.144;11.424;2024-01-07T10:40:52;2.40;99.90
12276;DHT22;6200;48.144;11.424;2024-01-07T10:43:19;2.40;99.90
12276;DHT22;6200;48.144;11.424;2024-01-07T10:45:47;2.40;99.90
12276;DHT22;6200;48.144;11.424;2024-01-07T10:48:17;2.40;99.90
12276;DHT22;6200;48.144;11.424;2024-01-07T10:50:45;2.50;99.90
12276;DHT22;6200;48.144;11.424;2024-01-07T10:53:18;2.50;99.90
12276;DHT22;6200;48.144;11.424;2024-01-07T10:55:52;2.50;99.90
12276;DHT22;6200;48.144;11.424;2024-01-07T10:58:20;2.50;99.90
12276;DHT22;6200;48.144;11.424;2024-01-07T11:00:46;2.50;99.90
12276;DHT22;6200;48.144;11.424;2024-01-07T11:03:29;2.50;99.90
12276;DHT22;6200;48.144;11.424;2024-01-07T11:06:11;2.50;99.90
12276;DHT22;6200;48.144;11.424;2024-01-07T11:08:55;2.50;99.90
12276;DHT22;6200;48.144;11.424;2024-01-07T11:11:26;2.40;99.90
12276;DHT22;6200;48.144;11.424;2024-01-07T11:13:53;2.40;99.90
12276;DHT22;6200;48.144;11.424;2024-01-07T11:16:40;2.40;99.90
12276;DHT22;6200;48.144;11.424;2024-01-07T11:19:06;2.40;99.90
12276;DHT22;6200;48.144;11.424;2024-01-07T11:21:32;2.40;99.90
12276;DHT22;6200;48.144;11.424;2024-01-07T11:23:57;2.40;99.90
12276;DHT22;6200;48.144;11.424;2024-01-07T11:26:23;2.40;99.90
12276;DHT22;6200;48.144;11.424;2024-01-07T11:28:55;2.40;99.90
12276;DHT22;6200;48.144;11.424;2024-01-07T11:34:08;2.40;99.90
12276;DHT22;6200;48.144;11.424;2024-01-07T11:36:36;2.40;99.90
12276;DHT22;6200;48.144;11.424;2024-01-07T11:39:03;2.40;99.90
12276;DHT22;6200;48.144;11.424;2024-01-07T11:41:33;2.40;99.90
12276;DHT22;6200;48.144;11.424;2024-01-07T11:43:59;2.40;99.90
12276;DHT22;6200;48.144;11.424;2024-01-07T11:46:29;2.40;99.90
12276;DHT22;6200;48.144;11.424;2024-01-07T11:48:59;2.30;99.90
12276;DHT22;6200;48.144;11.424;2024-01-07T11:51:29;2.30;99.90
12276;DHT22;6200;48.144;11.424;2024-01-07T11:53:59;3.80;99.90
12276;DHT22;6200;48.144;11.424;2024-01-07T11:56:25;2.40;99.90
12276;DHT22;6200;48.144;11.424;2024-01-07T11:58:51;2.40;99.90
12276;DHT22;6200;48.144;11.424;2024-01-07T12:01:18;2.40;99.90
12276;DHT22;6200;48.144;11.424;2024-01-07T12:03:44;2.30;99.90
12276;DHT22;6200;48.144;11.424;2024-01-07T12:06:10;2.30;99.90
12276;DHT22;6200;48.144;11.424;2024-01-07T12:08:40;2.30;99.90
12276;DHT22;6200;48.144;11.424;2024-01-07T12:11:06;2.30;99.90
12276;DHT22;6200;48.144;11.424;2024-01-07T12:13:32;2.30;99.90
12276;DHT22;6200;48.144;11.424;2024-01-07T12:15:58;2.20;99.90
12276;DHT22;6200;48.144;11.424;2024-01-07T12:18:23;2.10;99.90
12276;DHT22;6200;48.144;11.424;2024-01-07T12:20:57;2.10;99.90
12276;DHT22;6200;48.144;11.424;2024-01-07T12:23:24;2.10;99.90
12276;DHT22;6200;48.144;11.424;2024-01-07T12:25:51;2.00;99.90
12276;DHT22;6200;48.144;11.424;2024-01-07T12:28:17;2.10;99.90
12276;DHT22;6200;48.144;11.424;2024-01-07T12:30:47;2.00;99.90
12276;DHT22;6200;48.144;11.424;2024-01-07T12:33:19;2.00;99.90
12276;DHT22;6200;48.144;11.424;2024-01-07T12:35:48;2.00;99.90
12276;DHT22;6200;48.144;11.424;2024-01-07T12:38:13;2.00;99.90
12276;DHT22;6200;48.144;11.424;2024-01-07T12:40:39;2.00;99.90
12276;DHT22;6200;48.144;11.424;2024-01-07T12:43:05;1.90;99.90
12276;DHT22;6200;48.144;11.424;2024-01-07T12:45:32;2.00;99.90
12276;DHT22;6200;48.144;11.424;2024-01-07T12:47:58;2.00;99.90
12276;DHT22;6200;48.144;11.424;2024-01-07T12:50:27;2.00;99.90
12276;DHT22;6200;48.144;11.424;2024-01-07T12:52:55;2.00;99.90
12276;DHT22;6200;48.144;11.424;2024-01-07T12:55:20;2.00;99.90
12276;DHT22;6200;48.144;11.424;2024-01-07T12:57:46;2.10;99.90
12276;DHT22;6200;48.144;11.424;2024-01-07T13:00:12;2.10;99.90
12276;DHT22;6200;48.144;11.424;2024-01-07T13:02:37;2.30;99.90
12276;DHT22;6200;48.144;11.424;2024-01-07T13:05:03;2.50;99.90
12276;DHT22;6200;48.144;11.424;2024-01-07T13:07:29;2.50;99.90
12276;DHT22;6200;48.144;11.424;2024-01-07T13:09:54;2.40;99.90
12276;DHT22;6200;48.144;11.424;2024-01-07T13:12:20;2.40;99.90
12276;DHT22;6200;48.144;11.424;2024-01-07T13:14:45;2.40;99.90
12276;DHT22;6200;48.144;11.424;2024-01-07T13:17:13;2.30;99.90
12276;DHT22;6200;48.144;11.424;2024-01-07T13:19:38;2.30;99.90
12276;DHT22;6200;48.144;11.424;2024-01-07T13:22:05;2.30;99.90
12276;DHT22;6200;48.144;11.424;2024-01-07T13:24:30;2.20;99.90
12276;DHT22;6200;48.144;11.424;2024-01-07T13:26:56;2.20;99.90
12276;DHT22;6200;48.144;11.424;2024-01-07T13:29:22;2.10;99.90
12276;DHT22;6200;48.144;11.424;2024-01-07T13:31:47;2.10;99.90
12276;DHT22;6200;48.144;11.424;2024-01-07T13:34:13;2.00;99.90
12276;DHT22;6200;48.144;11.424;2024-01-07T13:36:39;2.00;99.90
12276;DHT22;6200;48.144;11.424;2024-01-07T13:39:05;1.90;99.90
12276;DHT22;6200;48.144;11.424;2024-01-07T13:41:33;1.90;99.90
12276;DHT22;6200;48.144;11.424;2024-01-07T13:43:59;1.80;99.90
12276;DHT22;6200;48.144;11.424;2024-01-07T13:46:25;1.80;99.90
12276;DHT22;6200;48.144;11.424;2024-01-07T13:48:50;1.80;99.90
12276;DHT22;6200;48.144;11.424;2024-01-07T13:51:17;1.80;99.90
12276;DHT22;6200;48.144;11.424;2024-01-07T13:53:43;1.90;99.90
12276;DHT22;6200;48.144;11.424;2024-01-07T13:56:08;1.90;99.90
12276;DHT22;6200;48.144;11.424;2024-01-07T13:58:34;1.80;99.90
12276;DHT22;6200;48.144;11.424;2024-01-07T14:00:59;1.80;99.90
12276;DHT22;6200;48.144;11.424;2024-01-07T14:03:25;2.00;99.90
12276;DHT22;6200;48.144;11.424;2024-01-07T14:05:51;1.80;99.90
12276;DHT22;6200;48.144;11.424;2024-01-07T14:08:17;1.80;99.90
12276;DHT22;6200;48.144;11.424;2024-01-07T14:10:42;1.80;99.90
12276;DHT22;6200;48.144;11.424;2024-01-07T14:13:08;1.80;99.90
12276;DHT22;6200;48.144;11.424;2024-01-07T14:15:34;1.80;99.90
12276;DHT22;6200;48.144;11.424;2024-01-07T14:18:00;1.70;99.90
12276;DHT22;6200;48.144;11.424;2024-01-07T14:20:25;1.70;99.90
12276;DHT22;6200;48.144;11.424;2024-01-07T14:22:53;1.60;99.90
12276;DHT22;6200;48.144;11.424;2024-01-07T14:25:19;1.60;99.90
12276;DHT22;6200;48.144;11.424;2024-01-07T14:27:44;1.60;99.90
12276;DHT22;6200;48.144;11.424;2024-01-07T14:30:10;1.50;99.90
12276;DHT22;6200;48.144;11.424;2024-01-07T14:32:36;1.50;99.90
12276;DHT22;6200;48.144;11.424;2024-01-07T14:35:02;1.50;99.90
12276;DHT22;6200;48.144;11.424;2024-01-07T14:37:27;1.40;99.90
12276;DHT22;6200;48.144;11.424;2024-01-07T14:39:53;1.50;99.90
12276;DHT22;6200;48.144;11.424;2024-01-07T14:42:19;1.40;99.90
12276;DHT22;6200;48.144;11.424;2024-01-07T14:44:44;1.50;99.90
12276;DHT22;6200;48.144;11.424;2024-01-07T14:47:09;1.40;99.90
12276;DHT22;6200;48.144;11.424;2024-01-07T14:49:35;1.40;99.90
12276;DHT22;6200;48.144;11.424;2024-01-07T14:52:00;1.40;99.90
12276;DHT22;6200;48.144;11.424;2024-01-07T14:54:26;1.30;99.90
12276;DHT22;6200;48.144;11.424;2024-01-07T14:56:51;1.30;99.90
12276;DHT22;6200;48.144;11.424;2024-01-07T14:59:17;1.30;99.90
12276;DHT22;6200;48.144;11.424;2024-01-07T15:01:42;1.30;99.90
12276;DHT22;6200;48.144;11.424;2024-01-07T15:04:10;1.30;99.90
12276;DHT22;6200;48.144;11.424;2024-01-07T15:06:40;1.20;99.90
12276;DHT22;6200;48.144;11.424;2024-01-07T15:09:06;1.20;99.90
12276;DHT22;6200;48.144;11.424;2024-01-07T15:11:32;1.20;99.90
12276;DHT22;6200;48.144;11.424;2024-01-07T15:13:57;1.30;99.90
12276;DHT22;6200;48.144;11.424;2024-01-07T15:16:23;1.20;99.90
12276;DHT22;6200;48.144;11.424;2024-01-07T15:18:48;1.20;99.90
12276;DHT22;6200;48.144;11.424;2024-01-07T15:21:14;1.30;99.90
12276;DHT22;6200;48.144;11.424;2024-01-07T15:23:39;1.20;99.90
12276;DHT22;6200;48.144;11.424;2024-01-07T15:26:05;1.30;99.90
12276;DHT22;6200;48.144;11.424;2024-01-07T15:28:30;1.20;99.90
12276;DHT22;6200;48.144;11.424;2024-01-07T15:30:56;1.20;99.90
12276;DHT22;6200;48.144;11.424;2024-01-07T15:33:22;1.20;99.90
12276;DHT22;6200;48.144;11.424;2024-01-07T15:35:47;1.20;99.90
12276;DHT22;6200;48.144;11.424;2024-01-07T15:38:13;1.20;99.90
12276;DHT22;6200;48.144;11.424;2024-01-07T15:40:38;1.20;99.90